createdAt,value
2019-03-15T00:01:30.462Z,72.45
2019-03-15T00:03:58.596Z,72.49
2019-03-15T00:06:25.508Z,72.43
2019-03-15T00:08:52.915Z,72.46
2019-03-15T00:11:19.783Z,72.36
2019-03-15T00:13:46.553Z,72.23
2019-03-15T00:16:13.713Z,72.27
2019-03-15T00:18:40.458Z,72.20
2019-03-15T00:21:07.374Z,72.15
2019-03-15T00:23:34.570Z,72.20
2019-03-15T00:26:01.381Z,72.16
2019-03-15T00:28:28.156Z,72.08
2019-03-15T00:30:54.973Z,71.97
2019-03-15T00:33:21.721Z,71.85
2019-03-15T00:35:48.665Z,71.67
2019-03-15T00:38:16.016Z,71.58
2019-03-15T00:40:43.158Z,71.48
2019-03-15T00:43:09.904Z,71.44
2019-03-15T00:45:37.229Z,71.36
2019-03-15T00:48:06.127Z,71.22
2019-03-15T00:50:33.299Z,71.16
2019-03-15T00:53:02.865Z,71.21
2019-03-15T00:55:30.617Z,71.21
2019-03-15T00:57:57.390Z,71.17
2019-03-15T01:00:24.260Z,71.03
2019-03-15T01:02:51.537Z,71.04
2019-03-15T01:05:18.352Z,71.07
2019-03-15T01:07:45.705Z,70.99
2019-03-15T01:10:12.656Z,71.07
2019-03-15T01:12:40.568Z,70.98
2019-03-15T01:15:12.149Z,70.85
2019-03-15T01:17:39.193Z,70.76
2019-03-15T01:20:31.229Z,70.68
2019-03-15T01:22:58.186Z,70.76
2019-03-15T01:25:24.993Z,70.71
2019-03-15T01:27:51.816Z,70.66
2019-03-15T01:30:18.615Z,70.68
2019-03-15T01:32:46.299Z,70.54
2019-03-15T01:35:13.659Z,70.57
2019-03-15T01:37:40.483Z,70.63
2019-03-15T01:40:07.799Z,70.64
2019-03-15T01:42:34.739Z,70.70
2019-03-15T01:45:01.870Z,70.71
2019-03-15T01:47:28.748Z,70.79
2019-03-15T01:49:56.021Z,71.00
2019-03-15T01:52:23.064Z,71.27
2019-03-15T01:54:50.406Z,71.76
2019-03-15T01:57:17.870Z,71.41
2019-03-15T01:59:45.211Z,71.77
2019-03-15T02:02:12.101Z,71.51
2019-03-15T02:04:38.921Z,71.66
2019-03-15T02:07:06.441Z,71.92
2019-03-15T02:09:33.476Z,71.82
2019-03-15T02:12:00.363Z,71.96
2019-03-15T02:14:27.671Z,72.34
2019-03-15T02:16:54.702Z,71.92
2019-03-15T02:19:21.869Z,71.89
2019-03-15T02:21:48.843Z,71.74
2019-03-15T02:24:15.740Z,71.86
2019-03-15T02:26:42.747Z,71.73
2019-03-15T02:29:09.718Z,71.68
2019-03-15T02:31:36.934Z,71.65
2019-03-15T02:34:04.373Z,71.71
2019-03-15T02:36:31.184Z,71.73
2019-03-15T02:38:58.515Z,71.88
2019-03-15T02:41:25.306Z,72.12
2019-03-15T02:43:52.256Z,72.63
2019-03-15T02:46:19.017Z,72.80
2019-03-15T02:48:45.788Z,73.06
2019-03-15T02:51:12.744Z,73.61
2019-03-15T02:53:39.854Z,73.42
2019-03-15T02:56:06.604Z,73.96
2019-03-15T02:58:34.028Z,74.76
2019-03-15T03:01:03.172Z,74.22
2019-03-15T03:03:30.233Z,73.97
2019-03-15T03:05:57.556Z,73.98
2019-03-15T03:08:24.876Z,73.77
2019-03-15T03:10:51.672Z,74.00
2019-03-15T03:13:18.679Z,74.37
2019-03-15T03:15:45.469Z,74.27
2019-03-15T03:18:12.320Z,74.70
2019-03-15T03:20:39.117Z,75.91
2019-03-15T03:23:06.006Z,76.44
2019-03-15T03:25:33.155Z,76.33
2019-03-15T03:28:01.288Z,77.08
2019-03-15T03:30:28.398Z,76.63
2019-03-15T03:32:55.628Z,77.23
2019-03-15T03:35:22.417Z,76.72
2019-03-15T03:37:49.279Z,76.46
2019-03-15T03:40:20.380Z,76.85
2019-03-15T03:42:45.836Z,76.49
2019-03-15T03:45:13.249Z,77.82
2019-03-15T03:47:39.963Z,77.19
2019-03-15T03:50:09.141Z,76.66
2019-03-15T03:52:36.164Z,76.36
2019-03-15T03:55:04.631Z,77.60
2019-03-15T03:57:31.672Z,77.38
2019-03-15T03:59:58.682Z,77.39
2019-03-15T04:02:25.809Z,76.54
2019-03-15T04:04:53.079Z,77.03
2019-03-15T04:07:20.327Z,76.55
2019-03-15T04:09:47.265Z,76.50
2019-03-15T04:12:14.252Z,76.37
2019-03-15T04:14:41.367Z,76.15
2019-03-15T04:17:08.269Z,76.07
2019-03-15T04:19:38.324Z,75.90
2019-03-15T04:22:05.132Z,76.11
2019-03-15T04:24:31.971Z,76.07
2019-03-15T04:26:58.850Z,76.33
2019-03-15T04:29:25.796Z,76.27
2019-03-15T04:31:53.182Z,76.79
2019-03-15T04:34:20.041Z,76.80
2019-03-15T04:36:47.011Z,76.08
2019-03-15T04:39:14.228Z,76.33
2019-03-15T04:41:41.143Z,76.10
2019-03-15T04:44:07.972Z,76.05
2019-03-15T04:46:34.722Z,76.35
2019-03-15T04:49:01.490Z,76.05
2019-03-15T04:51:28.743Z,76.03
2019-03-15T04:53:55.813Z,76.00
2019-03-15T04:56:22.965Z,75.97
2019-03-15T04:58:49.804Z,75.68
2019-03-15T05:01:17.006Z,75.63
2019-03-15T05:03:43.978Z,75.55
2019-03-15T05:06:11.340Z,75.50
2019-03-15T05:08:38.499Z,75.49
2019-03-15T05:11:06.004Z,75.58
2019-03-15T05:13:33.283Z,75.71
2019-03-15T05:16:00.517Z,75.49
2019-03-15T05:18:27.294Z,75.69
2019-03-15T05:20:54.419Z,76.11
2019-03-15T05:23:21.520Z,76.24
2019-03-15T05:25:48.270Z,76.67
2019-03-15T05:28:15.104Z,76.67
2019-03-15T05:30:41.874Z,76.72
2019-03-15T05:33:08.668Z,76.69
2019-03-15T05:35:35.528Z,76.67
2019-03-15T05:38:02.711Z,76.62
2019-03-15T05:40:29.489Z,76.88
2019-03-15T05:42:56.496Z,76.76
2019-03-15T05:45:23.800Z,76.85
2019-03-15T05:47:50.571Z,77.50
2019-03-15T05:50:17.327Z,77.28
2019-03-15T05:52:44.210Z,77.21
2019-03-15T05:55:13.147Z,77.22
2019-03-15T05:57:39.934Z,77.38
2019-03-15T06:00:13.447Z,77.44
2019-03-15T06:02:40.763Z,77.28
2019-03-15T06:05:09.040Z,77.58
2019-03-15T06:07:36.209Z,77.53
2019-03-15T06:10:08.038Z,77.72
2019-03-15T06:12:35.234Z,77.48
2019-03-15T06:15:04.787Z,77.48
2019-03-15T06:17:31.685Z,77.72
2019-03-15T06:19:58.472Z,77.84
2019-03-15T06:22:26.454Z,77.71
2019-03-15T06:24:53.646Z,77.54
2019-03-15T06:27:23.418Z,77.75
2019-03-15T06:29:50.187Z,77.55
2019-03-15T06:32:17.356Z,77.55
2019-03-15T06:34:44.154Z,77.53
2019-03-15T06:37:10.945Z,77.45
2019-03-15T06:39:37.973Z,77.55
2019-03-15T06:42:04.750Z,77.84
2019-03-15T06:44:31.502Z,77.59
2019-03-15T06:47:03.598Z,77.45
2019-03-15T06:49:30.364Z,77.76
2019-03-15T06:51:57.218Z,77.75
2019-03-15T06:54:26.889Z,77.79
2019-03-15T06:56:53.709Z,77.58
2019-03-15T06:59:21.159Z,77.46
2019-03-15T07:01:48.035Z,77.55
2019-03-15T07:04:14.817Z,77.68
2019-03-15T07:06:42.484Z,77.63
2019-03-15T07:09:10.319Z,77.54
2019-03-15T07:11:37.323Z,77.35
2019-03-15T07:14:04.438Z,77.41
2019-03-15T07:16:31.246Z,77.32
2019-03-15T07:18:58.403Z,77.40
2019-03-15T07:21:26.268Z,77.73
2019-03-15T07:23:57.856Z,77.64
2019-03-15T07:26:25.477Z,77.33
2019-03-15T07:28:52.475Z,77.45
2019-03-15T07:31:19.403Z,77.55
2019-03-15T07:33:46.773Z,77.42
2019-03-15T07:36:14.056Z,77.42
2019-03-15T07:38:41.015Z,77.45
2019-03-15T07:41:07.903Z,77.91
2019-03-15T07:43:34.814Z,78.19
2019-03-15T07:46:02.094Z,78.41
2019-03-15T07:48:29.002Z,78.56
2019-03-15T07:50:56.138Z,78.54
2019-03-15T07:53:22.951Z,78.65
2019-03-15T07:55:52.279Z,79.08
2019-03-15T07:58:19.068Z,79.12
2019-03-15T08:00:45.966Z,79.27
2019-03-15T08:03:13.223Z,79.67
2019-03-15T08:05:40.004Z,80.12
2019-03-15T08:08:07.216Z,79.80
2019-03-15T08:10:34.006Z,79.83
2019-03-15T08:13:00.802Z,79.74
2019-03-15T08:15:27.749Z,79.53
2019-03-15T08:17:54.747Z,79.73
2019-03-15T08:20:22.554Z,79.90
2019-03-15T08:22:49.472Z,79.91
2019-03-15T08:25:16.448Z,80.12
2019-03-15T08:27:45.271Z,79.62
2019-03-15T08:30:17.202Z,79.40
2019-03-15T08:32:45.130Z,80.02
2019-03-15T08:35:12.756Z,80.63
2019-03-15T08:37:40.047Z,80.88
2019-03-15T08:40:09.884Z,81.04
2019-03-15T08:42:36.938Z,81.01
2019-03-15T08:45:10.055Z,81.20
2019-03-15T08:47:37.039Z,81.00
2019-03-15T08:50:08.774Z,81.25
2019-03-15T08:52:35.695Z,81.17
2019-03-15T08:55:06.082Z,80.81
2019-03-15T08:57:32.983Z,81.08
2019-03-15T08:59:59.899Z,81.68
2019-03-15T09:02:27.016Z,81.48
2019-03-15T09:04:53.865Z,81.00
2019-03-15T09:07:20.620Z,81.50
2019-03-15T09:09:48.019Z,81.50
2019-03-15T09:12:14.795Z,81.65
2019-03-15T09:14:41.579Z,81.73
2019-03-15T09:17:08.318Z,80.43
2019-03-15T09:19:35.115Z,80.50
2019-03-15T09:22:01.874Z,79.76
2019-03-15T09:24:28.639Z,78.63
2019-03-15T09:26:55.408Z,78.68
2019-03-15T09:29:24.455Z,79.27
2019-03-15T09:32:04.388Z,78.36
2019-03-15T09:34:19.800Z,78.57
2019-03-15T09:36:50.431Z,78.61
2019-03-15T09:39:15.684Z,79.45
2019-03-15T09:41:42.913Z,78.75
2019-03-15T09:44:09.711Z,79.23
2019-03-15T09:46:36.937Z,79.37
2019-03-15T09:49:03.947Z,79.00
2019-03-15T09:51:30.744Z,80.82
2019-03-15T09:53:57.576Z,79.54
2019-03-15T09:56:27.755Z,79.44
2019-03-15T09:58:53.558Z,79.60
2019-03-15T10:01:34.352Z,79.49
2019-03-15T10:03:49.501Z,79.87
2019-03-15T10:06:19.388Z,79.64
2019-03-15T10:08:45.477Z,79.97
2019-03-15T10:11:12.650Z,79.90
2019-03-15T10:13:39.501Z,79.70
2019-03-15T10:16:06.379Z,79.97
2019-03-15T10:18:33.550Z,80.25
2019-03-15T10:21:00.815Z,79.86
2019-03-15T10:23:27.573Z,79.86
2019-03-15T10:25:54.442Z,80.92
2019-03-15T10:28:21.195Z,80.95
2019-03-15T10:30:48.148Z,80.22
2019-03-15T10:33:15.226Z,80.69
2019-03-15T10:35:42.012Z,80.57
2019-03-15T10:38:09.111Z,80.71
2019-03-15T10:40:35.984Z,80.27
2019-03-15T10:43:03.314Z,80.18
2019-03-15T10:45:30.259Z,80.11
2019-03-15T10:47:57.158Z,80.00
2019-03-15T10:50:27.161Z,80.31
2019-03-15T10:52:54.232Z,80.02
2019-03-15T10:55:21.301Z,80.03
2019-03-15T10:57:48.054Z,80.05
2019-03-15T11:00:17.716Z,80.13
2019-03-15T11:02:44.944Z,80.36
2019-03-15T11:05:12.094Z,80.29
2019-03-15T11:07:39.481Z,80.39
2019-03-15T11:10:09.153Z,81.46
2019-03-15T11:12:36.027Z,81.57
2019-03-15T11:15:06.806Z,80.53
2019-03-15T11:17:33.637Z,80.71
2019-03-15T11:20:00.578Z,81.37
2019-03-15T11:22:27.559Z,80.84
2019-03-15T11:24:54.593Z,81.26
2019-03-15T11:27:22.154Z,80.59
2019-03-15T11:29:48.895Z,80.82
2019-03-15T11:32:16.133Z,80.60
2019-03-15T11:34:45.826Z,81.15
2019-03-15T11:37:15.482Z,80.91
2019-03-15T11:39:42.273Z,80.93
2019-03-15T11:42:09.031Z,81.07
2019-03-15T11:44:35.909Z,81.28
2019-03-15T11:47:02.936Z,81.35
2019-03-15T11:49:29.806Z,81.56
2019-03-15T11:51:56.952Z,81.45
2019-03-15T11:54:23.776Z,83.32
2019-03-15T11:56:51.011Z,81.86
2019-03-15T11:59:18.008Z,82.23
2019-03-15T12:01:44.780Z,82.35
2019-03-15T12:04:11.598Z,82.19
2019-03-15T12:06:38.418Z,82.59
2019-03-15T12:09:05.949Z,82.35
2019-03-15T12:11:33.954Z,82.04
2019-03-15T12:14:01.377Z,82.01
2019-03-15T12:16:28.628Z,82.26
2019-03-15T12:18:57.690Z,82.97
2019-03-15T12:21:25.205Z,82.25
2019-03-15T12:23:52.080Z,82.00
2019-03-15T12:26:19.076Z,82.42
2019-03-15T12:28:46.265Z,82.25
2019-03-15T12:31:13.352Z,82.48
2019-03-15T12:33:42.577Z,82.16
2019-03-15T12:36:09.408Z,81.98
2019-03-15T12:38:36.405Z,81.93
2019-03-15T12:41:03.435Z,81.89
2019-03-15T12:43:30.396Z,81.83
2019-03-15T12:45:58.113Z,81.63
2019-03-15T12:48:25.008Z,81.82
2019-03-15T12:50:52.221Z,81.74
2019-03-15T12:53:19.424Z,81.81
2019-03-15T12:55:46.194Z,82.20
2019-03-15T12:58:13.389Z,81.85
2019-03-15T13:00:40.600Z,81.65
2019-03-15T13:03:07.968Z,82.21
2019-03-15T13:05:35.894Z,81.52
2019-03-15T13:08:02.824Z,81.66
2019-03-15T13:10:31.023Z,81.34
2019-03-15T13:12:57.831Z,81.34
2019-03-15T13:15:25.290Z,81.56
2019-03-15T13:17:52.564Z,81.04
2019-03-15T13:20:19.616Z,81.05
2019-03-15T13:22:48.912Z,81.47
2019-03-15T13:25:15.960Z,81.45
2019-03-15T13:27:43.240Z,81.55
2019-03-15T13:30:15.484Z,81.57
2019-03-15T13:32:43.123Z,81.66
2019-03-15T13:35:11.457Z,81.44
2019-03-15T13:37:42.280Z,81.08
2019-03-15T13:40:13.110Z,81.17
2019-03-15T13:42:40.379Z,80.88
2019-03-15T13:45:13.044Z,80.86
2019-03-15T13:47:40.659Z,80.54
2019-03-15T13:50:17.705Z,80.62
2019-03-15T13:52:44.989Z,80.32
2019-03-15T13:55:12.191Z,80.62
2019-03-15T13:57:39.013Z,80.91
2019-03-15T14:00:15.938Z,80.94
2019-03-15T14:02:43.006Z,81.13
2019-03-15T14:05:10.141Z,81.15
2019-03-15T14:07:37.263Z,81.42
2019-03-15T14:10:13.066Z,81.29
2019-03-15T14:12:39.916Z,81.32
2019-03-15T14:15:17.111Z,81.29
2019-03-15T14:17:46.319Z,81.07
2019-03-15T14:20:14.689Z,81.04
2019-03-15T14:22:41.877Z,80.87
2019-03-15T14:25:22.429Z,80.42
2019-03-15T14:27:49.207Z,80.12
2019-03-15T14:30:16.012Z,80.16
2019-03-15T14:32:43.050Z,80.02
2019-03-15T14:35:10.099Z,80.31
2019-03-15T14:37:37.304Z,80.40
2019-03-15T14:40:10.109Z,80.28
2019-03-15T14:42:37.477Z,80.51
2019-03-15T14:45:09.451Z,80.12
2019-03-15T14:47:36.863Z,80.08
2019-03-15T14:50:09.054Z,80.08
2019-03-15T14:52:36.018Z,80.18
2019-03-15T14:55:12.269Z,80.19
2019-03-15T14:57:51.423Z,80.63
2019-03-15T15:00:12.061Z,80.43
2019-03-15T15:02:38.832Z,80.58
2019-03-15T15:05:09.225Z,80.68
2019-03-15T15:07:36.125Z,80.82
2019-03-15T15:10:15.471Z,80.71
2019-03-15T15:12:42.385Z,81.19
2019-03-15T15:15:13.246Z,81.04
2019-03-15T15:17:40.129Z,81.29
2019-03-15T15:20:09.277Z,80.96
2019-03-15T15:22:36.184Z,80.94
2019-03-15T15:25:12.553Z,81.01
2019-03-15T15:27:39.417Z,80.94
2019-03-15T15:30:12.376Z,81.04
2019-03-15T15:32:39.253Z,80.79
2019-03-15T15:35:08.603Z,80.80
2019-03-15T15:37:37.910Z,80.68
2019-03-15T15:40:10.072Z,80.72
2019-03-15T15:42:37.463Z,80.97
2019-03-15T15:45:07.698Z,80.83
2019-03-15T15:47:35.280Z,80.73
2019-03-15T15:50:04.657Z,81.05
2019-03-15T15:52:31.453Z,81.00
2019-03-15T15:54:58.676Z,81.08
2019-03-15T15:57:25.769Z,81.21
2019-03-15T15:59:52.508Z,81.35
2019-03-15T16:02:19.306Z,81.42
2019-03-15T16:04:46.190Z,81.73
2019-03-15T16:07:13.603Z,81.39
2019-03-15T16:09:40.474Z,81.44
2019-03-15T16:12:07.442Z,81.65
2019-03-15T16:14:34.359Z,81.55
2019-03-15T16:17:01.151Z,81.61
2019-03-15T16:19:30.172Z,81.45
2019-03-15T16:21:57.507Z,81.44
2019-03-15T16:24:26.210Z,81.47
2019-03-15T16:26:52.999Z,81.71
2019-03-15T16:29:19.887Z,81.51
2019-03-15T16:31:46.655Z,81.49
2019-03-15T16:34:13.933Z,81.12
2019-03-15T16:36:40.860Z,81.21
2019-03-15T16:39:07.921Z,80.92
2019-03-15T16:41:35.241Z,80.51
2019-03-15T16:44:02.275Z,80.43
2019-03-15T16:46:29.180Z,80.17
2019-03-15T16:48:56.035Z,80.09
2019-03-15T16:51:22.854Z,80.04
2019-03-15T16:53:50.018Z,79.95
2019-03-15T16:56:20.114Z,80.18
2019-03-15T16:58:46.805Z,80.30
2019-03-15T17:01:13.984Z,80.63
2019-03-15T17:03:40.876Z,80.72
2019-03-15T17:06:07.632Z,80.88
2019-03-15T17:08:34.851Z,80.89
2019-03-15T17:11:01.733Z,80.81
2019-03-15T17:13:28.986Z,80.85
2019-03-15T17:15:56.296Z,81.09
2019-03-15T17:18:23.148Z,81.32
2019-03-15T17:20:49.908Z,81.56
2019-03-15T17:23:16.711Z,82.01
2019-03-15T17:25:43.749Z,81.84
2019-03-15T17:28:10.651Z,81.96
2019-03-15T17:30:39.485Z,81.81
2019-03-15T17:33:06.491Z,81.89
2019-03-15T17:35:33.403Z,81.71
2019-03-15T17:38:00.318Z,81.78
2019-03-15T17:40:27.491Z,81.68
2019-03-15T17:42:55.409Z,81.76
2019-03-15T17:45:22.403Z,81.57
2019-03-15T17:47:51.393Z,81.50
2019-03-15T17:50:21.828Z,81.44
2019-03-15T17:52:48.718Z,81.51
2019-03-15T17:55:16.540Z,81.59
2019-03-15T17:57:45.733Z,81.30
2019-03-15T18:00:36.711Z,81.19
2019-03-15T18:03:19.234Z,81.07
2019-03-15T18:05:34.467Z,80.96
2019-03-15T18:08:01.587Z,80.71
2019-03-15T18:10:28.597Z,80.72
2019-03-15T18:12:55.621Z,80.64
2019-03-15T18:15:22.626Z,80.82
2019-03-15T18:17:49.739Z,80.79
2019-03-15T18:20:17.060Z,80.99
2019-03-15T18:22:44.553Z,80.96
2019-03-15T18:25:12.298Z,81.00
2019-03-15T18:27:39.598Z,81.01
2019-03-15T18:30:15.929Z,80.78
2019-03-15T18:32:42.954Z,80.69
2019-03-15T18:35:10.439Z,80.42
2019-03-15T18:37:38.045Z,80.51
2019-03-15T18:40:14.245Z,80.44
2019-03-15T18:42:41.365Z,80.63
2019-03-15T18:45:15.778Z,80.54
2019-03-15T18:47:42.606Z,80.38
2019-03-15T18:50:20.287Z,80.35
2019-03-15T18:52:47.551Z,80.43
2019-03-15T18:55:14.512Z,80.23
2019-03-15T18:57:41.356Z,80.21
2019-03-15T19:00:13.615Z,80.59
2019-03-15T19:02:40.397Z,80.38
2019-03-15T19:05:08.378Z,80.30
2019-03-15T19:07:35.332Z,80.36
2019-03-15T19:10:07.079Z,80.48
2019-03-15T19:12:34.310Z,80.36
2019-03-15T19:15:01.269Z,80.40
2019-03-15T19:17:28.395Z,80.99
2019-03-15T19:19:55.313Z,80.71
2019-03-15T19:22:22.441Z,80.43
2019-03-15T19:24:49.767Z,80.43
2019-03-15T19:27:17.031Z,80.52
2019-03-15T19:29:53.589Z,80.53
2019-03-15T19:32:13.222Z,80.71
2019-03-15T19:34:40.035Z,80.79
2019-03-15T19:37:06.884Z,80.36
2019-03-15T19:39:33.702Z,80.36
2019-03-15T19:42:02.886Z,80.55
2019-03-15T19:44:29.675Z,80.68
2019-03-15T19:46:56.625Z,81.04
2019-03-15T19:49:25.244Z,80.84
2019-03-15T19:51:52.119Z,80.67
2019-03-15T19:54:19.380Z,80.80
2019-03-15T19:56:46.713Z,80.55
2019-03-15T19:59:16.482Z,80.31
2019-03-15T20:01:43.552Z,80.47
2019-03-15T20:04:10.455Z,80.52
2019-03-15T20:06:37.194Z,80.52
2019-03-15T20:09:06.135Z,80.49
2019-03-15T20:11:32.916Z,80.57
2019-03-15T20:13:59.720Z,80.50
2019-03-15T20:16:26.461Z,80.95
2019-03-15T20:18:53.331Z,80.41
2019-03-15T20:21:20.587Z,80.27
2019-03-15T20:23:47.503Z,80.08
2019-03-15T20:26:14.300Z,80.36
2019-03-15T20:28:41.172Z,80.05
2019-03-15T20:31:07.910Z,80.03
2019-03-15T20:33:35.285Z,80.15
2019-03-15T20:36:02.758Z,80.17
2019-03-15T20:38:29.530Z,80.24
2019-03-15T20:40:56.482Z,80.55
2019-03-15T20:43:23.293Z,80.59
2019-03-15T20:45:50.115Z,80.50
2019-03-15T20:48:17.521Z,80.46
2019-03-15T20:50:47.003Z,80.15
2019-03-15T20:53:13.249Z,80.13
2019-03-15T20:55:40.656Z,79.96
2019-03-15T20:58:07.605Z,79.55
2019-03-15T21:00:36.118Z,79.51
2019-03-15T21:03:03.380Z,79.54
2019-03-15T21:05:31.031Z,79.38
2019-03-15T21:07:57.983Z,79.05
2019-03-15T21:10:24.746Z,78.76
2019-03-15T21:12:52.090Z,78.50
2019-03-15T21:15:19.553Z,78.54
2019-03-15T21:17:46.774Z,78.75
2019-03-15T21:20:15.526Z,79.17
2019-03-15T21:22:42.801Z,79.30
2019-03-15T21:25:09.863Z,79.24
2019-03-15T21:27:37.001Z,79.23
2019-03-15T21:30:18.887Z,79.11
2019-03-15T21:32:46.149Z,79.11
2019-03-15T21:35:13.084Z,79.27
2019-03-15T21:37:40.075Z,79.69
2019-03-15T21:40:21.031Z,80.13
2019-03-15T21:42:48.172Z,80.63
2019-03-15T21:45:15.150Z,80.88
2019-03-15T21:47:42.004Z,80.97
2019-03-15T21:50:21.007Z,81.39
2019-03-15T21:52:47.809Z,82.09
2019-03-15T21:55:14.990Z,81.72
2019-03-15T21:57:42.007Z,81.82
2019-03-15T22:00:16.733Z,81.65
2019-03-15T22:02:43.924Z,81.52
2019-03-15T22:05:11.000Z,81.87
2019-03-15T22:07:37.979Z,81.61
2019-03-15T22:10:13.958Z,81.69
2019-03-15T22:12:41.546Z,81.60
2019-03-15T22:15:10.681Z,81.69
2019-03-15T22:17:37.647Z,81.94
2019-03-15T22:20:17.696Z,81.84
2019-03-15T22:22:44.481Z,82.00
2019-03-15T22:25:11.915Z,82.24
2019-03-15T22:27:38.927Z,81.87
2019-03-15T22:30:09.727Z,81.76
2019-03-15T22:32:37.254Z,82.12
2019-03-15T22:35:05.431Z,81.81
2019-03-15T22:37:33.063Z,82.04
2019-03-15T22:40:00.160Z,82.63
2019-03-15T22:42:27.281Z,82.38
2019-03-15T22:44:54.160Z,82.11
2019-03-15T22:47:21.002Z,82.25
2019-03-15T22:49:47.921Z,82.29
2019-03-15T22:52:14.710Z,82.26
2019-03-15T22:54:41.649Z,82.21
2019-03-15T22:57:08.628Z,82.14
2019-03-15T22:59:36.187Z,82.32
2019-03-15T23:02:04.265Z,82.60
2019-03-15T23:04:31.009Z,82.27
2019-03-15T23:06:57.979Z,82.12
2019-03-15T23:09:24.822Z,82.27
2019-03-15T23:11:52.242Z,82.09
2019-03-15T23:14:19.024Z,82.13
2019-03-15T23:16:45.919Z,81.89
2019-03-15T23:19:13.003Z,81.73
2019-03-15T23:21:40.225Z,81.74
2019-03-15T23:24:07.702Z,81.55
2019-03-15T23:26:34.882Z,81.68
2019-03-15T23:29:01.772Z,82.02
2019-03-15T23:31:42.724Z,82.00
2019-03-15T23:33:58.462Z,82.09
2019-03-15T23:36:26.416Z,82.09
2019-03-15T23:38:53.846Z,81.95
2019-03-15T23:41:20.655Z,81.93
2019-03-15T23:43:47.578Z,82.14
2019-03-15T23:46:14.822Z,81.95
2019-03-15T23:48:41.998Z,82.14
2019-03-15T23:51:08.734Z,82.17
2019-03-15T23:53:36.267Z,81.97
2019-03-15T23:56:03.257Z,82.14
2019-03-15T23:58:30.010Z,82.27
